createdAt,value
2022-10-09T00:00:14.550Z,9.33
2022-10-09T00:02:41.200Z,9.31
2022-10-09T00:05:09.760Z,9.28
2022-10-09T00:07:36.438Z,9.28
2022-10-09T00:10:03.538Z,9.25
2022-10-09T00:12:30.263Z,9.24
2022-10-09T00:14:56.838Z,9.22
2022-10-09T00:17:23.497Z,9.19
2022-10-09T00:19:50.091Z,9.17
2022-10-09T00:22:18.225Z,9.14
2022-10-09T00:24:44.821Z,9.10
2022-10-09T00:27:11.495Z,9.09
2022-10-09T00:29:40.376Z,9.07
2022-10-09T00:32:06.881Z,9.03
2022-10-09T00:34:33.735Z,9.01
2022-10-09T00:37:00.619Z,8.98
2022-10-09T00:39:28.871Z,8.97
2022-10-09T00:41:55.490Z,8.94
2022-10-09T00:44:47.501Z,8.94
2022-10-09T00:47:20.628Z,8.96
2022-10-09T00:49:49.298Z,8.98
2022-10-09T00:52:16.693Z,8.98
2022-10-09T00:54:45.052Z,8.97
2022-10-09T00:57:12.111Z,8.94
2022-10-09T00:59:40.083Z,8.93
2022-10-09T01:02:07.439Z,8.92
2022-10-09T01:04:34.591Z,8.90
2022-10-09T01:07:13.522Z,8.89
2022-10-09T01:09:43.011Z,8.86
2022-10-09T01:12:20.031Z,8.83
2022-10-09T01:14:56.299Z,8.81
2022-10-09T01:17:31.227Z,8.78
2022-10-09T01:20:19.711Z,8.76
2022-10-09T01:22:56.071Z,8.72
2022-10-09T01:25:32.379Z,8.71
2022-10-09T01:28:02.951Z,8.71
2022-10-09T01:30:30.835Z,8.69
2022-10-09T01:32:58.770Z,8.68
2022-10-09T01:35:26.902Z,8.71
2022-10-09T01:37:54.774Z,8.69
2022-10-09T01:40:23.172Z,8.68
2022-10-09T01:42:50.020Z,8.66
2022-10-09T01:45:18.499Z,8.63
2022-10-09T01:47:45.139Z,8.60
2022-10-09T01:50:19.682Z,8.58
2022-10-09T01:52:50.251Z,8.57
2022-10-09T01:55:30.933Z,8.55
2022-10-09T01:58:04.980Z,8.52
2022-10-09T02:00:36.318Z,8.50
2022-10-09T02:03:07.507Z,8.46
2022-10-09T02:05:36.766Z,8.46
2022-10-09T02:08:04.366Z,8.45
2022-10-09T02:10:34.583Z,8.43
2022-10-09T02:13:01.495Z,8.40
2022-10-09T02:15:33.728Z,8.40
2022-10-09T02:18:08.760Z,8.36
2022-10-09T02:20:37.407Z,8.33
2022-10-09T02:23:07.513Z,8.29
2022-10-09T02:25:35.207Z,8.28
2022-10-09T02:28:03.081Z,8.27
2022-10-09T02:30:37.835Z,8.25
2022-10-09T02:33:06.052Z,8.22
2022-10-09T02:35:32.974Z,8.22
2022-10-09T02:37:59.614Z,8.23
2022-10-09T02:40:26.540Z,8.20
2022-10-09T02:42:53.176Z,8.19
2022-10-09T02:45:19.743Z,8.18
2022-10-09T02:47:46.338Z,8.16
2022-10-09T02:50:15.699Z,8.16
2022-10-09T02:52:42.376Z,8.17
2022-10-09T02:55:09.377Z,8.16
2022-10-09T02:57:36.573Z,8.15
2022-10-09T03:00:04.516Z,8.13
2022-10-09T03:02:31.248Z,8.10
2022-10-09T03:04:57.918Z,8.07
2022-10-09T03:07:25.925Z,8.04
2022-10-09T03:09:52.831Z,8.03
2022-10-09T03:12:22.154Z,7.99
2022-10-09T03:14:48.736Z,7.96
2022-10-09T03:17:15.402Z,7.96
2022-10-09T03:19:41.969Z,7.96
2022-10-09T03:22:08.640Z,7.96
2022-10-09T03:24:36.680Z,7.94
2022-10-09T03:27:03.404Z,7.94
2022-10-09T03:29:29.955Z,7.92
2022-10-09T03:31:56.652Z,7.93
2022-10-09T03:34:23.488Z,7.94
2022-10-09T03:36:50.391Z,7.93
2022-10-09T03:39:17.020Z,7.88
2022-10-09T03:41:44.995Z,7.85
2022-10-09T03:44:11.640Z,7.83
2022-10-09T03:46:38.343Z,7.82
2022-10-09T03:49:04.994Z,7.83
2022-10-09T03:51:31.670Z,7.83
2022-10-09T03:53:58.384Z,7.82
2022-10-09T03:56:25.169Z,7.80
2022-10-09T03:58:53.134Z,7.78
2022-10-09T04:01:20.216Z,7.78
2022-10-09T04:03:46.872Z,7.78
2022-10-09T04:06:13.545Z,7.75
2022-10-09T04:08:40.179Z,7.72
2022-10-09T04:11:06.975Z,7.70
2022-10-09T04:13:33.613Z,7.70
2022-10-09T04:16:01.665Z,7.71
2022-10-09T04:18:28.259Z,7.70
2022-10-09T04:20:56.790Z,7.71
2022-10-09T04:23:25.748Z,7.71
2022-10-09T04:25:53.068Z,7.68
2022-10-09T04:28:19.687Z,7.68
2022-10-09T04:30:46.340Z,7.66
2022-10-09T04:33:14.283Z,7.65
2022-10-09T04:35:42.265Z,7.64
2022-10-09T04:38:08.911Z,7.61
2022-10-09T04:40:35.555Z,7.60
2022-10-09T04:43:02.196Z,7.58
2022-10-09T04:45:28.991Z,7.57
2022-10-09T04:47:55.648Z,7.57
2022-10-09T04:50:23.971Z,7.56
2022-10-09T04:52:50.786Z,7.55
2022-10-09T04:55:17.798Z,7.51
2022-10-09T04:57:44.359Z,7.48
2022-10-09T05:00:12.468Z,7.47
2022-10-09T05:02:39.218Z,7.45
2022-10-09T05:05:06.350Z,7.42
2022-10-09T05:07:34.346Z,7.42
2022-10-09T05:10:00.917Z,7.42
2022-10-09T05:12:27.605Z,7.43
2022-10-09T05:14:54.166Z,7.42
2022-10-09T05:17:23.196Z,7.44
2022-10-09T05:19:50.366Z,7.44
2022-10-09T05:22:17.021Z,7.40
2022-10-09T05:24:45.035Z,7.37
2022-10-09T05:27:11.619Z,7.36
2022-10-09T05:29:38.274Z,7.37
2022-10-09T05:32:04.876Z,7.36
2022-10-09T05:34:31.567Z,7.35
2022-10-09T05:37:00.300Z,7.33
2022-10-09T05:39:26.928Z,7.31
2022-10-09T05:41:54.918Z,7.28
2022-10-09T05:44:21.607Z,7.25
2022-10-09T05:46:48.260Z,7.23
2022-10-09T05:49:14.876Z,7.24
2022-10-09T05:51:42.941Z,7.24
2022-10-09T05:54:14.833Z,7.25
2022-10-09T05:56:42.374Z,7.25
2022-10-09T05:59:11.758Z,7.27
2022-10-09T06:01:40.382Z,7.27
2022-10-09T06:04:11.224Z,7.27
2022-10-09T06:06:39.829Z,7.27
2022-10-09T06:09:08.280Z,7.28
2022-10-09T06:11:36.789Z,7.29
2022-10-09T06:14:06.135Z,7.28
2022-10-09T06:16:35.926Z,7.25
2022-10-09T06:19:03.478Z,7.22
2022-10-09T06:21:30.813Z,7.23
2022-10-09T06:23:59.034Z,7.23
2022-10-09T06:26:29.239Z,7.24
2022-10-09T06:28:56.646Z,7.28
2022-10-09T06:31:25.399Z,7.30
2022-10-09T06:33:58.083Z,7.34
2022-10-09T06:36:26.702Z,7.36
2022-10-09T06:38:53.939Z,7.39
2022-10-09T06:41:22.850Z,7.43
2022-10-09T06:43:51.836Z,7.45
2022-10-09T06:46:19.384Z,7.46
2022-10-09T06:48:46.023Z,7.51
2022-10-09T06:51:16.402Z,7.57
2022-10-09T06:53:44.793Z,7.60
2022-10-09T06:56:11.584Z,7.64
2022-10-09T06:58:39.848Z,7.68
2022-10-09T07:01:08.143Z,7.73
2022-10-09T07:03:35.730Z,7.77
2022-10-09T07:06:07.336Z,7.82
2022-10-09T07:08:35.625Z,7.87
2022-10-09T07:11:09.215Z,7.92
2022-10-09T07:13:36.068Z,7.98
2022-10-09T07:16:04.956Z,8.02
2022-10-09T07:18:32.399Z,8.08
2022-10-09T07:21:00.856Z,8.12
2022-10-09T07:23:28.303Z,8.18
2022-10-09T07:25:56.288Z,8.22
2022-10-09T07:28:23.010Z,8.29
2022-10-09T07:30:49.706Z,8.35
2022-10-09T07:33:16.311Z,8.41
2022-10-09T07:35:43.006Z,8.46
2022-10-09T07:38:09.617Z,8.52
2022-10-09T07:40:36.553Z,8.57
2022-10-09T07:43:04.672Z,8.62
2022-10-09T07:45:31.282Z,8.67
2022-10-09T07:47:58.158Z,8.71
2022-10-09T07:50:24.967Z,8.76
2022-10-09T07:52:51.973Z,8.80
2022-10-09T07:55:18.762Z,8.84
2022-10-09T07:57:45.367Z,8.89
2022-10-09T08:00:13.878Z,8.92
2022-10-09T08:02:40.562Z,8.97
2022-10-09T08:05:08.144Z,9.00
2022-10-09T08:07:35.188Z,9.06
2022-10-09T08:10:02.466Z,9.10
2022-10-09T08:12:29.261Z,9.15
2022-10-09T08:14:55.986Z,9.19
2022-10-09T08:17:24.050Z,9.23
2022-10-09T08:19:50.653Z,9.28
2022-10-09T08:22:17.326Z,9.33
2022-10-09T08:24:43.956Z,9.39
2022-10-09T08:27:10.638Z,9.43
2022-10-09T08:29:40.206Z,9.48
2022-10-09T08:32:07.133Z,9.55
2022-10-09T09:36:17.241Z,11.37
2022-10-09T09:39:22.619Z,11.49
2022-10-09T09:41:32.191Z,11.59
2022-10-09T09:43:58.757Z,11.68
2022-10-09T09:46:29.998Z,11.78
2022-10-09T09:48:56.723Z,11.86
2022-10-09T09:51:29.145Z,11.96
2022-10-09T09:54:00.444Z,12.04
2022-10-09T09:56:53.304Z,12.12
2022-10-09T09:59:44.118Z,12.23
2022-10-09T10:02:14.007Z,12.32
2022-10-09T10:04:50.802Z,12.43
2022-10-09T10:07:28.567Z,12.56
2022-10-09T10:10:06.967Z,12.67
2022-10-09T10:12:39.412Z,12.77
2022-10-09T10:15:06.957Z,12.88
2022-10-09T10:17:36.420Z,12.93
2022-10-09T10:20:06.603Z,12.99
2022-10-09T10:22:33.786Z,13.07
2022-10-09T10:25:00.620Z,13.14
2022-10-09T10:27:35.424Z,13.21
2022-10-09T10:30:06.067Z,13.30
2022-10-09T10:32:35.850Z,13.39
2022-10-09T10:35:06.820Z,13.49
2022-10-09T10:37:42.921Z,13.59
2022-10-09T10:40:16.832Z,13.66
2022-10-09T10:42:59.390Z,13.74
2022-10-09T10:45:33.721Z,13.82
2022-10-09T10:48:03.044Z,13.92
2022-10-09T10:50:37.503Z,14.01
2022-10-09T10:53:10.945Z,14.09
2022-10-09T10:55:47.841Z,14.16
2022-10-09T10:58:25.160Z,14.22
2022-10-09T11:01:01.019Z,14.28
2022-10-09T11:03:45.831Z,14.36
2022-10-09T11:06:20.601Z,14.44
2022-10-09T11:09:00.192Z,14.51
2022-10-09T11:11:34.167Z,14.58
2022-10-09T11:14:19.260Z,14.66
2022-10-09T11:16:59.879Z,14.73
2022-10-09T11:19:45.523Z,14.79
2022-10-09T11:22:30.582Z,14.87
2022-10-09T11:25:18.799Z,14.95
2022-10-09T11:27:51.723Z,15.02
2022-10-09T11:30:20.308Z,15.09
2022-10-09T11:32:57.523Z,15.15
2022-10-09T11:35:26.601Z,15.20
2022-10-09T11:37:59.819Z,15.26
2022-10-09T11:40:32.055Z,15.34
2022-10-09T11:43:08.819Z,15.39
2022-10-09T11:45:46.293Z,15.46
2022-10-09T11:48:21.067Z,15.52
2022-10-09T11:51:00.845Z,15.58
2022-10-09T11:53:34.667Z,15.64
2022-10-09T11:56:03.569Z,15.69
2022-10-09T11:58:30.269Z,15.73
2022-10-09T12:01:11.515Z,15.79
2022-10-09T12:03:39.933Z,15.85
2022-10-09T12:06:10.288Z,15.91
2022-10-09T12:08:38.996Z,15.99
2022-10-09T12:11:13.568Z,16.02
2022-10-09T12:13:50.724Z,16.06
2022-10-09T12:16:37.538Z,16.11
2022-10-09T12:19:11.623Z,16.15
2022-10-09T12:21:46.683Z,16.19
2022-10-09T12:24:17.108Z,16.23
2022-10-09T12:26:44.374Z,16.28
2022-10-09T12:29:19.226Z,16.32
2022-10-09T12:31:50.688Z,16.37
2022-10-09T12:34:20.970Z,16.41
2022-10-09T12:36:47.653Z,16.46
2022-10-09T12:39:15.269Z,16.49
2022-10-09T12:41:45.192Z,16.54
2022-10-09T12:44:24.410Z,16.56
2022-10-09T12:46:52.749Z,16.61
2022-10-09T12:49:21.386Z,16.66
2022-10-09T12:51:55.385Z,16.69
2022-10-09T12:54:25.279Z,16.72
2022-10-09T12:56:53.632Z,16.77
2022-10-09T12:59:21.675Z,16.81
2022-10-09T13:01:59.476Z,16.84
2022-10-09T13:04:30.124Z,16.88
2022-10-09T13:06:58.555Z,16.92
2022-10-09T13:09:28.396Z,16.97
2022-10-09T13:11:58.433Z,17.00
2022-10-09T13:14:28.394Z,17.03
2022-10-09T13:16:55.241Z,17.06
2022-10-09T13:19:26.249Z,17.08
2022-10-09T13:22:18.801Z,17.12
2022-10-09T13:24:45.787Z,17.12
2022-10-09T13:27:14.764Z,17.16
2022-10-09T13:29:42.382Z,17.19
2022-10-09T13:32:12.454Z,17.21
2022-10-09T13:34:40.724Z,17.25
2022-10-09T13:37:07.749Z,17.27
2022-10-09T13:39:34.393Z,17.28
2022-10-09T13:42:02.536Z,17.31
2022-10-09T13:44:29.217Z,17.32
2022-10-09T13:46:56.014Z,17.35
2022-10-09T13:49:22.920Z,17.36
2022-10-09T13:51:50.935Z,17.36
2022-10-09T13:54:17.490Z,17.39
2022-10-09T13:56:44.239Z,17.40
2022-10-09T13:59:10.838Z,17.41
2022-10-09T14:01:38.016Z,17.42
2022-10-09T14:04:04.730Z,17.44
2022-10-09T14:06:34.083Z,17.46
2022-10-09T14:09:02.073Z,17.45
2022-10-09T14:11:28.894Z,17.46
2022-10-09T14:13:55.507Z,17.48
2022-10-09T14:16:22.896Z,17.48
2022-10-09T14:18:49.692Z,17.48
2022-10-09T14:21:16.400Z,17.50
2022-10-09T14:23:43.266Z,17.49
2022-10-09T14:26:11.484Z,17.50
2022-10-09T14:28:38.252Z,17.50
2022-10-09T14:31:06.143Z,17.51
2022-10-09T14:33:32.930Z,17.50
2022-10-09T14:36:05.803Z,17.49
2022-10-09T14:38:32.541Z,17.49
2022-10-09T14:40:59.101Z,17.49
2022-10-09T14:43:27.115Z,17.47
2022-10-09T14:46:01.830Z,17.47
2022-10-09T14:48:28.607Z,17.47
2022-10-09T14:50:55.328Z,17.46
2022-10-09T14:53:22.108Z,17.45
2022-10-09T14:55:48.679Z,17.47
2022-10-09T14:58:15.517Z,17.47
2022-10-09T15:00:47.530Z,17.44
2022-10-09T15:03:14.269Z,17.43
2022-10-09T15:05:40.822Z,17.42
2022-10-09T15:08:07.505Z,17.41
2022-10-09T15:10:34.840Z,17.40
2022-10-09T15:13:01.476Z,17.38
2022-10-09T15:15:32.489Z,17.37
2022-10-09T15:18:01.018Z,17.37
2022-10-09T15:20:27.679Z,17.37
2022-10-09T15:22:54.348Z,17.36
2022-10-09T15:25:21.040Z,17.33
2022-10-09T15:27:51.243Z,17.31
2022-10-09T15:30:20.385Z,17.28
2022-10-09T15:32:47.001Z,17.23
2022-10-09T15:35:15.216Z,17.20
2022-10-09T15:37:41.838Z,17.19
2022-10-09T15:40:09.473Z,17.17
2022-10-09T15:42:37.393Z,17.15
2022-10-09T15:45:04.441Z,17.12
2022-10-09T15:47:49.858Z,17.10
2022-10-09T15:50:19.154Z,17.07
2022-10-09T15:52:45.843Z,17.02
2022-10-09T15:55:12.504Z,16.98
2022-10-09T15:57:39.329Z,16.95
2022-10-09T16:00:07.499Z,16.89
2022-10-09T16:02:34.386Z,16.86
2022-10-09T16:05:01.024Z,16.81
2022-10-09T16:07:29.047Z,16.76
2022-10-09T16:09:56.787Z,16.72
2022-10-09T16:12:23.547Z,16.68
2022-10-09T16:14:50.259Z,16.62
2022-10-09T16:17:16.878Z,16.58
2022-10-09T16:19:43.486Z,16.53
2022-10-09T16:22:12.573Z,16.48
2022-10-09T16:24:40.955Z,16.42
2022-10-09T16:27:07.569Z,16.37
2022-10-09T16:29:34.201Z,16.33
2022-10-09T16:32:00.880Z,16.27
2022-10-09T16:34:27.499Z,16.21
2022-10-09T16:36:54.089Z,16.13
2022-10-09T16:39:23.674Z,16.06
2022-10-09T16:41:51.675Z,15.96
2022-10-09T16:44:19.555Z,15.86
2022-10-09T16:46:46.755Z,15.76
2022-10-09T16:49:19.996Z,15.65
2022-10-09T16:51:49.701Z,15.56
2022-10-09T16:54:16.301Z,15.48
2022-10-09T16:56:42.933Z,15.42
2022-10-09T16:59:12.580Z,15.35
2022-10-09T17:01:43.679Z,15.26
2022-10-09T17:04:11.592Z,15.18
2022-10-09T17:06:40.263Z,15.10
2022-10-09T17:09:13.799Z,15.01
2022-10-09T17:11:41.236Z,14.94
2022-10-09T17:14:08.095Z,14.87
2022-10-09T17:16:38.056Z,14.80
2022-10-09T17:19:05.052Z,14.72
2022-10-09T17:21:34.455Z,14.65
2022-10-09T17:24:03.224Z,14.59
2022-10-09T17:26:30.291Z,14.52
2022-10-09T17:28:58.420Z,14.46
2022-10-09T17:31:25.556Z,14.39
2022-10-09T17:33:56.565Z,14.33
2022-10-09T17:36:25.020Z,14.25
2022-10-09T17:38:52.203Z,14.18
2022-10-09T17:41:21.387Z,14.13
2022-10-09T17:43:48.050Z,14.06
2022-10-09T17:46:15.337Z,14.01
2022-10-09T17:48:45.092Z,13.95
2022-10-09T17:51:16.862Z,13.92
2022-10-09T17:53:43.693Z,13.86
2022-10-09T17:56:10.653Z,13.82
2022-10-09T17:58:37.902Z,13.77
2022-10-09T18:01:05.800Z,13.74
2022-10-09T18:03:32.427Z,13.71
2022-10-09T18:05:59.235Z,13.67
2022-10-09T18:08:28.419Z,13.63
2022-10-09T18:10:58.582Z,13.59
2022-10-09T18:13:25.259Z,13.58
2022-10-09T18:15:51.871Z,13.55
2022-10-09T18:18:18.928Z,13.51
2022-10-09T18:20:45.527Z,13.48
2022-10-09T18:23:13.458Z,13.43
2022-10-09T18:25:42.644Z,13.39
2022-10-09T18:28:09.774Z,13.31
2022-10-09T18:30:41.158Z,13.28
2022-10-09T18:33:07.887Z,13.23
2022-10-09T18:35:35.734Z,13.21
2022-10-09T18:38:02.522Z,13.18
2022-10-09T18:40:29.287Z,13.16
2022-10-09T18:42:57.452Z,13.13
2022-10-09T18:45:24.525Z,13.10
2022-10-09T18:47:51.661Z,13.06
2022-10-09T18:50:18.780Z,13.05
2022-10-09T18:52:45.518Z,13.03
2022-10-09T18:55:16.196Z,13.01
2022-10-09T18:57:43.723Z,13.00
2022-10-09T19:00:14.296Z,13.01
2022-10-09T19:02:40.960Z,13.00
2022-10-09T19:05:08.684Z,12.99
2022-10-09T19:07:35.263Z,12.94
2022-10-09T19:10:02.140Z,12.90
2022-10-09T19:12:28.736Z,12.88
2022-10-09T19:14:55.571Z,12.86
2022-10-09T19:17:23.694Z,12.85
2022-10-09T19:19:50.538Z,12.81
2022-10-09T19:22:21.350Z,12.79
2022-10-09T19:24:50.304Z,12.76
2022-10-09T19:27:16.982Z,12.73
2022-10-09T19:29:43.622Z,12.70
2022-10-09T19:32:10.312Z,12.67
2022-10-09T19:34:38.439Z,12.65
2022-10-09T19:39:36.856Z,12.57
2022-10-09T19:42:03.626Z,12.52
2022-10-09T19:44:30.189Z,12.48
2022-10-09T19:46:57.127Z,12.43
2022-10-09T19:49:23.679Z,12.39
2022-10-09T19:51:51.782Z,12.35
2022-10-09T19:54:18.711Z,12.32
2022-10-09T19:56:45.404Z,12.28
2022-10-09T19:59:12.094Z,12.26
2022-10-09T20:01:40.522Z,12.21
2022-10-09T20:04:09.470Z,12.19
2022-10-09T20:06:36.656Z,12.15
2022-10-09T20:09:05.501Z,12.12
2022-10-09T20:11:32.084Z,12.08
2022-10-09T20:13:58.806Z,12.04
2022-10-09T20:16:27.862Z,12.02
2022-10-09T20:18:54.967Z,12.01
2022-10-09T20:21:22.027Z,11.97
2022-10-09T20:23:48.758Z,11.96
2022-10-09T20:26:18.410Z,11.96
2022-10-09T20:28:46.274Z,11.94
2022-10-09T20:31:16.528Z,11.93
2022-10-09T20:33:44.657Z,11.93
2022-10-09T20:36:19.203Z,11.92
2022-10-09T20:38:45.898Z,11.90
2022-10-09T20:41:12.769Z,11.89
2022-10-09T20:43:40.870Z,11.89
2022-10-09T20:46:08.824Z,11.87
2022-10-09T20:48:35.921Z,11.87
2022-10-09T20:51:03.055Z,11.85
2022-10-09T20:53:29.798Z,11.84
2022-10-09T20:56:00.440Z,11.83
2022-10-09T20:58:27.845Z,11.82
2022-10-09T21:00:55.932Z,11.80
2022-10-09T21:03:22.990Z,11.81
2022-10-09T21:05:49.743Z,11.80
2022-10-09T21:08:17.174Z,11.80
2022-10-09T21:10:44.045Z,11.79
2022-10-09T21:13:10.907Z,11.78
2022-10-09T21:15:43.536Z,11.77
2022-10-09T21:18:12.421Z,11.76
2022-10-09T21:20:39.712Z,11.73
2022-10-09T21:23:06.483Z,11.70
2022-10-09T21:25:33.931Z,11.70
2022-10-09T21:28:00.715Z,11.68
2022-10-09T21:30:27.580Z,11.68
2022-10-09T21:32:54.252Z,11.66
2022-10-09T21:35:23.149Z,11.66
2022-10-09T21:37:50.656Z,11.64
2022-10-09T21:40:17.453Z,11.65
2022-10-09T21:42:44.067Z,11.65
2022-10-09T21:45:12.367Z,11.64
2022-10-09T21:47:40.250Z,11.64
2022-10-09T21:50:08.151Z,11.63
2022-10-09T21:52:36.151Z,11.62
2022-10-09T21:55:02.979Z,11.60
2022-10-09T21:57:29.552Z,11.58
2022-10-09T21:59:56.207Z,11.58
2022-10-09T22:02:22.861Z,11.57
2022-10-09T22:04:50.318Z,11.59
2022-10-09T22:07:17.322Z,11.57
2022-10-09T22:09:45.458Z,11.55
2022-10-09T22:12:12.075Z,11.53
2022-10-09T22:14:38.758Z,11.52
2022-10-09T22:17:05.848Z,11.52
2022-10-09T22:19:32.539Z,11.49
2022-10-09T22:21:59.158Z,11.47
2022-10-09T22:24:29.079Z,11.46
2022-10-09T22:26:57.888Z,11.45
2022-10-09T22:29:24.768Z,11.43
2022-10-09T22:31:51.457Z,11.43
2022-10-09T22:34:18.836Z,11.42
2022-10-09T22:36:45.897Z,11.42
2022-10-09T22:39:13.323Z,11.40
2022-10-09T22:41:40.339Z,11.39
2022-10-09T22:44:10.375Z,11.39
2022-10-09T22:46:39.068Z,11.37
2022-10-09T22:49:07.147Z,11.36
2022-10-09T22:51:34.367Z,11.35
2022-10-09T22:54:01.244Z,11.33
2022-10-09T22:56:30.333Z,11.31
2022-10-09T22:58:57.457Z,11.29
2022-10-09T23:01:31.589Z,11.27
2022-10-09T23:03:59.063Z,11.26
2022-10-09T23:06:26.046Z,11.25
2022-10-09T23:08:52.797Z,11.22
2022-10-09T23:11:21.087Z,11.20
2022-10-09T23:13:52.824Z,11.16
2022-10-09T23:16:19.544Z,11.15
2022-10-09T23:18:47.461Z,11.13
2022-10-09T23:21:17.296Z,11.11
2022-10-09T23:23:44.911Z,11.09
2022-10-09T23:26:13.405Z,11.07
2022-10-09T23:28:40.807Z,11.06
2022-10-09T23:31:09.378Z,11.06
2022-10-09T23:33:37.777Z,11.06
2022-10-09T23:36:07.294Z,11.06
2022-10-09T23:38:34.191Z,11.05
2022-10-09T23:41:02.893Z,11.06
2022-10-09T23:43:31.359Z,11.06
2022-10-09T23:46:00.024Z,11.08
2022-10-09T23:48:26.892Z,11.07
2022-10-09T23:50:54.846Z,11.08
2022-10-09T23:53:24.583Z,11.09
2022-10-09T23:55:51.638Z,11.10
2022-10-09T23:58:21.030Z,11.08
